Time;durP1;ratioP1;P1;durP2;ratioP2;P2;SDS_P1;SDS_P2;PMS_P1;PMS_P2;Temp;Humidity;BMP_temperature;BMP_pressure;BME280_temperature;BME280_humidity;BME280_pressure;Samples;Min_cycle;Max_cycle;Signal;HPM_P1;HPM_P2
2023/05/21 00:03:45;;;;;;;16.20;11.68;;;;;;;8.99;100.00;101611.34;10508495;28;20064;-80
2023/05/21 00:08:45;;;;;;;18.88;13.80;;;;;;;9.03;100.00;101614.25;10524696;28;20036;-81
2023/05/21 00:13:46;;;;;;;17.67;12.57;;;;;;;9.03;100.00;101609.03;10524575;28;20044;-80
2023/05/21 00:18:48;;;;;;;20.35;13.25;;;;;;;9.03;100.00;101606.41;10523693;28;20483;-80
2023/05/21 00:23:49;;;;;;;;;;;;;;;8.96;100.00;101601.59;10507712;28;20030;-80
2023/05/21 00:28:49;;;;;;;19.73;14.45;;;;;;;8.92;100.00;101604.81;10525063;28;20351;-81
2023/05/21 00:33:50;;;;;;;25.40;14.25;;;;;;;8.94;100.00;101605.81;10522488;28;20524;-80
2023/05/21 00:38:50;;;;;;;18.98;14.27;;;;;;;8.99;100.00;101603.50;10525050;28;20097;-80
2023/05/21 00:43:51;;;;;;;16.60;11.85;;;;;;;9.05;100.00;101602.19;10529406;28;20482;-80
2023/05/21 00:48:52;;;;;;;20.80;13.68;;;;;;;8.96;100.00;101601.59;10532385;28;20032;-80
2023/05/21 00:53:53;;;;;;;16.52;12.15;;;;;;;8.85;100.00;101595.69;10532926;28;20060;-80
2023/05/21 00:58:54;;;;;;;28.05;16.63;;;;;;;8.80;100.00;101597.97;10514190;28;20526;-79
2023/05/21 01:03:56;;;;;;;18.30;14.32;;;;;;;8.79;100.00;101600.50;10515264;28;20051;-79
2023/05/21 01:08:57;;;;;;;17.58;12.52;;;;;;;8.77;100.00;101596.88;10529906;28;20040;-79
2023/05/21 01:13:57;;;;;;;16.02;11.85;;;;;;;8.65;100.00;101595.25;10531274;28;20035;-79
2023/05/21 01:18:58;;;;;;;16.98;13.32;;;;;;;8.66;100.00;101596.13;10530558;28;20047;-79
2023/05/21 01:23:58;;;;;;;20.13;15.27;;;;;;;8.63;100.00;101599.47;10532627;28;20036;-80
2023/05/21 01:28:59;;;;;;;24.08;15.52;;;;;;;8.56;100.00;101596.31;10529692;28;20052;-80
2023/05/21 01:34:00;;;;;;;25.88;17.83;;;;;;;8.59;100.00;101592.22;10531407;28;20036;-80
2023/05/21 01:39:05;;;;;;;27.88;19.45;;;;;;;8.62;100.00;101595.03;10513453;28;20391;-80
2023/05/21 01:44:05;;;;;;;25.85;17.70;;;;;;;8.68;100.00;101596.25;10511158;28;20494;-80
2023/05/21 01:49:06;;;;;;;20.70;14.68;;;;;;;8.70;100.00;101590.31;10512990;28;20077;-80
2023/05/21 01:54:06;;;;;;;22.42;16.92;;;;;;;8.64;100.00;101592.53;10512361;28;20043;-80
2023/05/21 01:59:07;;;;;;;23.35;15.98;;;;;;;8.52;100.00;101590.91;10513271;28;20161;-80
2023/05/21 02:04:11;;;;;;;23.85;16.65;;;;;;;8.52;100.00;101585.69;10512796;28;20028;-80
2023/05/21 02:09:11;;;;;;;27.10;19.92;;;;;;;8.57;100.00;101577.25;10528812;28;20142;-80
2023/05/21 02:14:12;;;;;;;23.83;18.08;;;;;;;8.57;100.00;101569.44;10511751;28;20040;-80
2023/05/21 02:19:13;;;;;;;33.28;20.38;;;;;;;8.61;100.00;101572.38;10527907;28;20499;-80
2023/05/21 02:24:13;;;;;;;27.70;19.73;;;;;;;8.66;100.00;101573.56;10510061;28;20111;-79
2023/05/21 02:29:14;;;;;;;27.42;19.90;;;;;;;8.74;100.00;101565.34;10527270;28;20047;-79
2023/05/21 02:34:15;;;;;;;30.20;21.90;;;;;;;8.80;100.00;101564.03;10527124;28;20070;-80
2023/05/21 02:39:16;;;;;;;35.58;21.45;;;;;;;9.07;100.00;101565.75;10508001;28;20070;-80
2023/05/21 02:44:18;;;;;;;30.70;19.58;;;;;;;9.16;100.00;101553.28;10527779;28;20463;-80
2023/05/21 02:49:18;;;;;;;27.77;20.17;;;;;;;9.24;100.00;101554.69;10527412;28;20040;-79
2023/05/21 02:54:19;;;;;;;24.50;17.33;;;;;;;9.29;100.00;101549.75;10527887;28;20032;-79
2023/05/21 02:59:20;;;;;;;27.33;17.27;;;;;;;9.29;100.00;101544.53;10525179;28;20046;-80
2023/05/21 03:04:20;;;;;;;21.73;17.08;;;;;;;9.35;100.00;101544.91;10526955;28;20075;-79
2023/05/21 03:09:21;;;;;;;21.70;18.08;;;;;;;9.40;100.00;101545.22;10527843;28;20046;-79
2023/05/21 03:14:23;;;;;;;21.38;16.50;;;;;;;9.36;100.00;101528.44;10490818;28;20118;-79
2023/05/21 03:19:24;;;;;;;22.50;16.13;;;;;;;9.62;100.00;101523.03;10524533;28;20372;-79
2023/05/21 03:24:25;;;;;;;21.83;15.38;;;;;;;9.81;100.00;101522.44;10526096;28;20082;-78
2023/05/21 03:29:26;;;;;;;20.90;13.95;;;;;;;9.82;100.00;101512.09;10525674;28;20036;-85
2023/05/21 03:34:26;;;;;;;20.20;14.45;;;;;;;9.83;100.00;101513.91;10507884;28;20503;-81
2023/05/21 03:39:27;;;;;;;18.52;14.90;;;;;;;9.95;100.00;101523.31;10527275;28;20136;-81
2023/05/21 03:44:31;;;;;;;21.20;13.48;;;;;;;9.97;100.00;101519.97;10526869;28;20032;-82
2023/05/21 03:49:31;;;;;;;20.55;13.95;;;;;;;10.05;100.00;101516.91;10525165;28;20048;-80
2023/05/21 03:54:32;;;;;;;18.30;13.20;;;;;;;10.19;100.00;101510.78;10508061;28;20226;-80
2023/05/21 03:59:32;;;;;;;16.77;12.30;;;;;;;10.28;100.00;101507.81;10524596;28;20122;-80
2023/05/21 04:04:33;;;;;;;17.02;12.25;;;;;;;10.28;100.00;101506.09;10523631;28;20060;-80
2023/05/21 04:09:33;;;;;;;14.07;11.50;;;;;;;10.38;100.00;101506.63;10523080;28;20075;-79
2023/05/21 04:14:35;;;;;;;22.48;13.02;;;;;;;10.49;100.00;101513.44;10526207;28;20040;-81
2023/05/21 04:19:36;;;;;;;16.98;10.52;;;;;;;10.48;100.00;101509.00;10516265;28;20040;-85
2023/05/21 04:24:37;;;;;;;16.67;13.90;;;;;;;10.47;100.00;101522.91;10522554;28;20479;-86
2023/05/21 04:29:41;;;;;;;17.52;12.55;;;;;;;10.52;100.00;101520.59;10522877;28;20123;-85
2023/05/21 04:34:41;;;;;;;17.10;12.50;;;;;;;10.67;100.00;101513.63;10507882;28;20123;-86
2023/05/21 04:39:43;;;;;;;14.95;12.25;;;;;;;10.79;100.00;101516.03;10523545;28;20039;-82
2023/05/21 04:44:43;;;;;;;19.20;12.17;;;;;;;10.94;100.00;101513.38;10523300;28;20055;-88
2023/05/21 04:49:45;;;;;;;14.60;10.93;;;;;;;11.10;100.00;101517.75;10523211;28;20126;-83
2023/05/21 04:54:46;;;;;;;12.55;10.73;;;;;;;11.36;100.00;101515.66;10506633;28;20379;-82
2023/05/21 04:59:48;;;;;;;15.98;11.55;;;;;;;11.55;100.00;101500.94;10522432;28;20036;-85
2023/05/21 05:04:48;;;;;;;18.27;10.57;;;;;;;11.80;100.00;101502.25;10522074;28;20043;-85
2023/05/21 05:09:48;;;;;;;17.98;12.05;;;;;;;12.02;100.00;101506.94;10523190;28;20383;-86
2023/05/21 05:14:49;;;;;;;14.20;9.63;;;;;;;12.28;100.00;101500.41;10492161;28;20136;-85
2023/05/21 05:19:50;;;;;;;19.08;11.77;;;;;;;12.46;100.00;101474.19;10524224;28;20036;-81
2023/05/21 05:24:50;;;;;;;14.98;10.88;;;;;;;12.59;100.00;101475.69;10522690;28;20044;-81
2023/05/21 05:29:51;;;;;;;12.65;9.93;;;;;;;12.81;100.00;101470.59;10529673;28;20044;-86
2023/05/21 05:34:51;;;;;;;14.38;10.10;;;;;;;13.05;100.00;101478.72;10529133;28;20074;-83
2023/05/21 05:39:52;;;;;;;14.90;9.63;;;;;;;13.28;100.00;101473.66;10530302;28;20480;-83
2023/05/21 05:44:52;;;;;;;12.13;8.65;;;;;;;13.49;100.00;101464.16;10531826;28;20112;-84
2023/05/21 05:49:53;;;;;;;12.63;9.55;;;;;;;13.77;100.00;101449.59;10531255;28;20040;-84
2023/05/21 05:54:53;;;;;;;13.88;9.10;;;;;;;14.16;100.00;101445.09;10511323;28;20444;-85
2023/05/21 05:59:54;;;;;;;11.48;8.60;;;;;;;14.70;100.00;101452.59;10529605;28;20114;-83
2023/05/21 06:04:54;;;;;;;10.85;7.90;;;;;;;15.50;100.00;101448.59;10530699;28;20043;-87
2023/05/21 06:09:55;;;;;;;12.00;8.25;;;;;;;15.92;100.00;101453.66;10530162;28;20036;-84
2023/05/21 06:14:55;;;;;;;14.32;8.55;;;;;;;16.14;100.00;101447.34;10526595;28;20123;-83
2023/05/21 06:19:56;;;;;;;10.88;6.53;;;;;;;16.76;100.00;101455.50;10511117;28;20127;-81
2023/05/21 06:24:56;;;;;;;9.63;7.13;;;;;;;17.32;100.00;101459.00;10527812;28;20044;-80
2023/05/21 06:29:57;;;;;;;9.18;6.38;;;;;;;18.46;100.00;101456.78;10528429;28;21190;-83
2023/05/21 06:34:58;;;;;;;10.30;6.00;;;;;;;18.76;100.00;101464.53;10511936;28;20062;-82
2023/05/21 06:39:58;;;;;;;10.60;8.03;;;;;;;18.01;100.00;101458.28;10526411;28;20136;-82
2023/05/21 06:44:59;;;;;;;13.65;8.45;;;;;;;17.65;100.00;101456.38;10527176;28;20064;-83
2023/05/21 06:49:59;;;;;;;10.80;7.27;;;;;;;18.16;100.00;101448.06;10526867;28;20112;-82
2023/05/21 06:55:00;;;;;;;9.90;8.07;;;;;;;18.55;100.00;101448.13;10525537;28;20456;-86
2023/05/21 07:00:00;;;;;;;20.30;9.32;;;;;;;19.48;100.00;101444.88;10496920;28;20470;-86
2023/05/21 07:05:01;;;;;;;10.20;7.37;;;;;;;19.78;100.00;101449.00;10528105;28;20032;-84
2023/05/21 07:10:02;;;;;;;9.10;6.90;;;;;;;19.78;100.00;101443.69;10528865;28;20044;-81
2023/05/21 07:15:02;;;;;;;9.20;7.70;;;;;;;19.39;100.00;101456.22;10508903;28;20024;-81
2023/05/21 07:20:07;;;;;;;11.97;8.17;;;;;;;19.02;100.00;101443.06;10525530;28;20028;-81
2023/05/21 07:25:08;;;;;;;12.60;8.70;;;;;;;19.07;100.00;101452.00;10527182;28;20085;-81
2023/05/21 07:30:09;;;;;;;7.88;6.80;;;;;;;19.46;100.00;101449.28;10521628;28;20050;-81
2023/05/21 07:35:09;;;;;;;12.73;8.67;;;;;;;19.94;100.00;101444.91;10498008;28;20091;-81
2023/05/21 07:40:10;;;;;;;13.60;9.03;;;;;;;20.27;100.00;101433.09;10517047;28;20173;-81
2023/05/21 07:45:11;;;;;;;8.80;6.53;;;;;;;20.40;100.00;101431.50;10526159;28;20028;-81
2023/05/21 07:50:12;;;;;;;13.57;7.93;;;;;;;20.78;100.00;101433.88;10524006;28;20028;-81
2023/05/21 07:55:12;;;;;;;10.55;7.93;;;;;;;21.45;100.00;101431.19;10507977;28;20035;-81
2023/05/21 08:00:13;;;;;;;11.13;8.47;;;;;;;22.51;100.00;101425.13;10526603;28;20540;-82
2023/05/21 08:05:15;;;;;;;10.35;8.48;;;;;;;23.25;96.87;101428.25;10527258;28;20032;-82
2023/05/21 08:10:15;;;;;;;12.48;9.20;;;;;;;23.82;88.55;101421.25;10507906;28;20042;-81
2023/05/21 08:15:16;;;;;;;9.97;8.87;;;;;;;23.08;91.24;101419.25;10524182;28;20039;-82
2023/05/21 08:20:16;;;;;;;10.30;8.23;;;;;;;23.13;93.47;101430.81;10525940;28;20497;-82
2023/05/21 08:25:17;;;;;;;18.17;10.07;;;;;;;23.71;90.16;101423.91;10523874;28;20112;-81
2023/05/21 08:30:17;;;;;;;12.73;7.70;;;;;;;23.75;88.13;101431.94;10523587;28;20059;-82
2023/05/21 08:35:18;;;;;;;9.20;7.77;;;;;;;24.61;83.43;101423.94;10525080;28;20032;-82
2023/05/21 08:40:18;;;;;;;10.23;8.00;;;;;;;24.90;83.40;101423.91;10507815;28;20036;-82
2023/05/21 08:45:20;;;;;;;11.67;10.10;;;;;;;25.49;76.51;101421.00;10524424;28;20526;-82
2023/05/21 08:50:20;;;;;;;13.95;9.85;;;;;;;25.40;76.67;101420.13;10524194;28;20032;-82
2023/05/21 08:55:23;;;;;;;11.40;8.40;;;;;;;25.51;77.38;101415.63;10507213;28;20123;-83
2023/05/21 09:00:24;;;;;;;15.23;10.20;;;;;;;25.89;77.03;101408.22;10523622;28;20403;-82
2023/05/21 09:05:24;;;;;;;12.27;10.40;;;;;;;26.04;70.83;101409.91;10530505;28;20051;-82
2023/05/21 09:10:30;;;;;;;15.17;10.40;;;;;;;25.22;73.00;101397.91;10514510;28;20541;-82
2023/05/21 09:15:31;;;;;;;11.25;9.32;;;;;;;24.78;77.51;101410.53;10499473;28;20040;-82
2023/05/21 09:20:31;;;;;;;14.53;11.37;;;;;;;24.12;79.63;101409.75;10513969;28;20472;-82
2023/05/21 09:25:32;;;;;;;12.20;10.10;;;;;;;23.88;84.05;101410.56;10530374;28;20139;-82
2023/05/21 09:30:32;;;;;;;15.30;11.20;;;;;;;24.58;81.19;101413.25;10514573;28;20058;-82
2023/05/21 09:35:34;;;;;;;15.53;10.27;;;;;;;25.27;79.39;101401.44;10497079;28;20480;-82
2023/05/21 09:40:34;;;;;;;15.88;11.63;;;;;;;25.73;77.22;101392.25;10531673;28;20032;-82
2023/05/21 09:45:35;;;;;;;12.30;10.63;;;;;;;25.52;77.96;101404.03;10494936;28;20392;-82
2023/05/21 09:50:36;;;;;;;13.97;11.17;;;;;;;25.71;80.85;101410.13;10488802;28;20128;-83
2023/05/21 09:55:36;;;;;;;14.80;11.63;;;;;;;24.71;83.02;101406.06;10488972;28;20720;-82
2023/05/21 10:00:37;;;;;;;15.50;11.87;;;;;;;24.99;80.10;101409.59;10489321;28;20048;-82
2023/05/21 10:05:37;;;;;;;14.63;11.80;;;;;;;24.86;82.54;101395.34;10473853;28;20028;-82
2023/05/21 10:10:38;;;;;;;17.77;11.67;;;;;;;25.11;80.16;101391.69;10510157;28;20028;-83
2023/05/21 10:15:43;;;;;;;12.47;10.83;;;;;;;25.57;80.66;101394.16;10492928;28;20119;-83
2023/05/21 10:20:44;;;;;;;11.98;10.45;;;;;;;25.51;78.99;101373.63;10509906;28;20119;-83
2023/05/21 10:25:44;;;;;;;16.67;12.57;;;;;;;24.86;79.15;101367.72;10527768;28;20044;-82
2023/05/21 10:30:45;;;;;;;16.53;12.40;;;;;;;25.13;81.85;101358.66;10527041;28;20036;-82
2023/05/21 10:35:47;;;;;;;13.73;11.33;;;;;;;26.03;79.13;101358.06;10509128;28;20445;-82
2023/05/21 10:40:47;;;;;;;16.30;12.20;;;;;;;27.05;74.30;101358.78;10527032;28;20383;-83
2023/05/21 10:45:52;;;;;;;18.27;12.17;;;;;;;27.87;67.82;101350.41;10509279;28;20028;-82
2023/05/21 10:51:17;;;;;;;15.88;12.38;;;;;;;26.91;71.77;101358.09;10526279;28;20480;-82
2023/05/21 10:56:31;;;;;;;19.63;15.30;;;;;;;26.52;72.88;101350.44;10524346;28;20028;-83
2023/05/21 11:01:34;;;;;;;12.48;10.63;;;;;;;27.43;69.49;101343.00;10528168;28;20046;-83
2023/05/21 11:06:34;;;;;;;17.05;12.57;;;;;;;27.82;70.36;101329.00;10509811;28;20040;-83
2023/05/21 11:11:47;;;;;;;13.27;11.33;;;;;;;28.06;69.46;101329.47;10526250;28;20059;-83
2023/05/21 11:16:47;;;;;;;19.13;13.10;;;;;;;28.02;66.15;101319.69;10525451;28;20471;-84
2023/05/21 11:21:51;;;;;;;15.67;11.67;;;;;;;28.41;64.90;101317.19;10527980;28;20028;-83
2023/05/21 11:26:57;;;;;;;16.85;13.68;;;;;;;29.04;65.51;101315.00;10524615;28;20040;-83
2023/05/21 11:32:01;;;;;;;14.43;12.88;;;;;;;28.62;63.93;101304.22;10526793;28;20052;-84
2023/05/21 11:42:42;;;;;;;20.13;12.52;;;;;;;28.73;65.25;101292.28;10527464;28;20036;-83
2023/05/21 11:47:43;;;;;;;15.30;13.32;;;;;;;28.64;66.01;101297.84;10515352;28;20036;-83
2023/05/21 11:52:44;;;;;;;17.87;12.67;;;;;;;28.87;70.38;101285.72;10526688;28;20024;-83
2023/05/21 11:57:46;;;;;;;20.33;13.18;;;;;;;29.11;66.39;101278.00;10525706;28;20043;-83
2023/05/21 12:02:51;;;;;;;14.20;12.20;;;;;;;28.79;67.49;101276.94;10523739;28;20035;-82
2023/05/21 12:07:53;;;;;;;17.02;12.88;;;;;;;28.88;63.20;101265.09;10526007;28;20039;-81
2023/05/21 12:12:53;;;;;;;17.45;12.30;;;;;;;29.34;64.88;101264.00;10525033;28;20085;-83
2023/05/21 12:17:54;;;;;;;15.17;13.30;;;;;;;28.73;63.91;101259.09;10507710;28;20101;-82
2023/05/21 12:22:56;;;;;;;13.38;11.90;;;;;;;28.34;63.75;101251.81;10507767;28;20119;-82
2023/05/21 12:27:56;;;;;;;16.02;13.43;;;;;;;27.77;68.56;101264.53;10524552;28;20044;-81
2023/05/21 12:32:57;;;;;;;15.80;13.00;;;;;;;28.46;66.29;101271.31;10508116;28;20061;-82
2023/05/21 12:38:01;;;;;;;18.40;13.43;;;;;;;29.03;64.49;101262.03;10529150;28;20036;-82
2023/05/21 12:43:02;;;;;;;17.40;12.95;;;;;;;29.13;63.39;101262.69;10532415;28;20111;-82
2023/05/21 12:48:03;;;;;;;14.07;10.23;;;;;;;27.94;65.55;101257.94;10532462;28;20032;-82
2023/05/21 12:53:07;;;;;;;18.60;13.75;;;;;;;26.62;68.24;101265.34;10532055;28;20048;-82
2023/05/21 12:58:07;;;;;;;18.98;14.27;;;;;;;26.19;72.01;101267.66;10515677;28;20485;-81
2023/05/21 13:03:08;;;;;;;15.97;12.67;;;;;;;25.88;76.56;101267.03;10533817;28;20132;-81
2023/05/21 13:08:09;;;;;;;15.43;12.13;;;;;;;25.75;77.09;101277.88;10532096;28;20119;-81
2023/05/21 13:13:09;;;;;;;16.63;11.23;;;;;;;25.80;79.76;101286.75;10532667;28;20483;-81
2023/05/21 13:18:14;;;;;;;13.60;12.23;;;;;;;26.44;76.83;101286.16;10531031;28;20115;-82
2023/05/21 13:23:15;;;;;;;16.08;13.13;;;;;;;26.50;74.60;101288.75;10531280;28;20147;-82
2023/05/21 13:28:15;;;;;;;15.50;11.40;;;;;;;25.77;74.54;101278.75;10531281;28;20042;-81
2023/05/21 13:33:16;;;;;;;14.67;11.37;;;;;;;25.66;79.81;101277.94;10530527;28;20032;-82
2023/05/21 13:38:16;;;;;;;15.80;11.13;;;;;;;26.01;75.95;101283.91;10530546;28;20089;-82
2023/05/21 13:43:17;;;;;;;13.50;10.93;;;;;;;25.46;79.06;101275.47;10530589;28;20043;-82
2023/05/21 13:48:17;;;;;;;21.17;12.97;;;;;;;24.61;83.98;101268.75;10531197;28;20043;-82
2023/05/21 13:53:18;;;;;;;17.63;11.90;;;;;;;24.77;85.92;101258.88;10529387;28;20114;-82
2023/05/21 13:58:19;;;;;;;19.43;12.50;;;;;;;25.89;85.39;101252.72;10529964;28;20123;-82
2023/05/21 14:03:19;;;;;;;18.57;11.70;;;;;;;26.71;79.20;101249.13;10512611;28;20036;-82
2023/05/21 14:08:23;;;;;;;17.13;12.75;;;;;;;27.96;75.17;101234.59;10529262;28;20570;-82
2023/05/21 14:13:23;;;;;;;13.20;10.57;;;;;;;27.76;72.51;101235.00;10528256;28;20032;-82
2023/05/21 14:18:24;;;;;;;19.13;13.43;;;;;;;27.84;73.42;101231.22;10511539;28;20430;-82
2023/05/21 14:23:24;;;;;;;17.87;13.10;;;;;;;27.57;71.47;101221.88;10528611;28;20472;-81
2023/05/21 14:28:25;;;;;;;18.27;13.73;;;;;;;27.78;71.53;101223.28;10528246;28;20044;-81
2023/05/21 14:33:26;;;;;;;12.97;11.57;;;;;;;27.19;74.71;101216.19;10528643;28;20036;-81
2023/05/21 14:38:26;;;;;;;21.30;12.60;;;;;;;26.26;79.03;101211.25;10528071;28;20043;-81
2023/05/21 14:43:27;;;;;;;18.90;14.53;;;;;;;25.60;82.13;101211.91;10529093;28;20040;-80
2023/05/21 14:48:27;;;;;;;19.97;13.53;;;;;;;25.21;84.60;101208.66;10527821;28;20319;-81
2023/05/21 14:53:28;;;;;;;15.30;11.37;;;;;;;25.09;86.55;101209.63;10510810;28;20063;-81
2023/05/21 14:58:28;;;;;;;16.03;12.63;;;;;;;25.02;89.83;101211.47;10528179;28;20111;-81
2023/05/21 15:03:29;;;;;;;20.43;12.30;;;;;;;25.33;87.15;101205.88;10528604;28;20113;-81
2023/05/21 15:08:29;;;;;;;15.77;11.90;;;;;;;25.43;84.76;101209.34;10527564;28;20131;-81
2023/05/21 15:13:30;;;;;;;16.97;13.87;;;;;;;25.22;89.80;101195.22;10527088;28;20139;-82
2023/05/21 15:18:31;;;;;;;19.40;12.70;;;;;;;25.19;91.30;101197.94;10524231;28;20036;-81
2023/05/21 15:23:38;;;;;;;17.25;13.85;;;;;;;25.22;90.00;101199.72;10520459;27;20791;-78
2023/05/21 15:28:39;;;;;;;24.77;12.67;;;;;;;25.08;92.08;101202.47;10519649;28;20048;-79
2023/05/21 15:33:39;;;;;;;17.37;12.37;;;;;;;24.49;91.42;101201.03;10519724;28;20067;-80
2023/05/21 15:38:40;;;;;;;14.83;11.87;;;;;;;24.11;95.40;101203.84;10518008;28;20065;-79
2023/05/21 15:43:41;;;;;;;16.90;12.23;;;;;;;23.92;98.26;101198.53;10518974;28;20166;-78
2023/05/21 15:48:41;;;;;;;19.50;14.03;;;;;;;23.72;100.00;101201.25;10513949;28;20044;-79
2023/05/21 15:53:42;;;;;;;17.97;14.23;;;;;;;23.91;100.00;101199.41;10555486;28;20081;-79
2023/05/21 15:58:42;;;;;;;22.03;13.73;;;;;;;23.75;100.00;101187.91;10538926;28;20040;-78
2023/05/21 16:03:43;;;;;;;20.60;14.17;;;;;;;23.78;100.00;101195.00;10518961;28;20445;-79
2023/05/21 16:08:43;;;;;;;26.40;14.43;;;;;;;23.88;100.00;101195.00;10517818;28;20044;-79
2023/05/21 16:13:44;;;;;;;15.87;10.87;;;;;;;23.95;100.00;101194.97;10500290;28;20119;-79
2023/05/21 16:18:44;;;;;;;23.03;13.50;;;;;;;23.85;100.00;101197.66;10501063;28;20518;-78
2023/05/21 16:23:45;;;;;;;23.07;12.90;;;;;;;23.82;100.00;101204.78;10499633;28;20044;-79
2023/05/21 16:28:45;;;;;;;20.70;13.67;;;;;;;23.73;100.00;101200.38;10517264;28;20135;-79
2023/05/21 16:33:46;;;;;;;14.80;11.57;;;;;;;23.56;100.00;101203.03;10495055;28;20033;-79
2023/05/21 16:38:46;;;;;;;16.80;12.60;;;;;;;23.59;100.00;101190.59;10488445;28;20071;-79
2023/05/21 16:43:47;;;;;;;16.70;11.33;;;;;;;23.61;100.00;101191.47;10489387;28;20044;-78
2023/05/21 16:48:47;;;;;;;17.97;13.67;;;;;;;23.60;100.00;101192.38;10470217;28;20396;-78
2023/05/21 16:53:48;;;;;;;23.03;11.33;;;;;;;23.57;100.00;101186.13;10441740;28;20043;-80
2023/05/21 16:58:48;;;;;;;15.23;12.17;;;;;;;23.52;100.00;101180.81;10486083;28;20478;-79
2023/05/21 17:03:49;;;;;;;16.47;11.83;;;;;;;23.33;100.00;101182.59;10490498;28;20048;-78
2023/05/21 17:08:49;;;;;;;17.33;12.37;;;;;;;23.06;100.00;101178.97;10436179;28;20057;-78
2023/05/21 17:13:50;;;;;;;15.30;13.07;;;;;;;23.00;100.00;101187.00;10466683;28;20128;-79
2023/05/21 17:18:50;;;;;;;15.17;11.67;;;;;;;23.07;100.00;101193.25;10439657;28;20170;-79
2023/05/21 17:23:51;;;;;;;16.23;11.23;;;;;;;23.11;100.00;101189.69;10442435;28;20048;-77
2023/05/21 17:28:51;;;;;;;17.27;13.33;;;;;;;22.93;100.00;101193.19;10471523;28;20569;-78
2023/05/21 17:33:52;;;;;;;17.13;12.97;;;;;;;22.87;100.00;101186.97;10435194;28;20076;-78
2023/05/21 17:38:52;;;;;;;21.03;13.80;;;;;;;22.70;100.00;101199.38;10425826;28;20042;-79
2023/05/21 17:43:53;;;;;;;20.03;12.40;;;;;;;22.53;100.00;101194.88;10436626;28;20124;-80
2023/05/21 17:48:53;;;;;;;14.47;11.93;;;;;;;22.34;100.00;101203.66;10459237;28;20548;-79
2023/05/21 17:53:54;;;;;;;16.23;11.57;;;;;;;22.12;100.00;101204.47;10467286;28;20147;-78
2023/05/21 17:58:55;;;;;;;16.07;13.40;;;;;;;21.92;100.00;101212.34;10455812;28;20446;-78
2023/05/21 18:03:55;;;;;;;14.43;11.23;;;;;;;21.71;100.00;101211.31;10484377;28;20052;-79
2023/05/21 18:08:56;;;;;;;12.47;10.80;;;;;;;21.52;100.00;101218.28;10484271;28;20681;-78
2023/05/21 18:13:57;;;;;;;17.23;12.90;;;;;;;21.30;100.00;101216.31;10447350;28;20051;-78
2023/05/21 18:18:59;;;;;;;14.53;11.50;;;;;;;21.12;100.00;101216.13;10439234;28;20041;-79
2023/05/21 18:24:00;;;;;;;13.80;10.27;;;;;;;20.99;100.00;101222.22;10441950;28;20037;-81
2023/05/21 18:29:01;;;;;;;25.15;15.30;;;;;;;20.82;100.00;101211.41;10427607;28;20561;-78
2023/05/21 18:34:01;;;;;;;26.37;13.43;;;;;;;20.72;100.00;101207.72;10449310;28;20037;-78
2023/05/21 18:39:02;;;;;;;17.50;11.20;;;;;;;20.65;100.00;101206.75;10429311;28;20447;-79
2023/05/21 18:44:04;;;;;;;16.47;11.67;;;;;;;20.51;100.00;101208.38;10429614;28;20116;-79
2023/05/21 18:49:05;;;;;;;15.35;12.07;;;;;;;20.16;100.00;101206.16;10440837;28;20032;-79
2023/05/21 18:54:07;;;;;;;13.67;10.60;;;;;;;19.78;100.00;101202.03;10417542;28;20426;-79
2023/05/21 18:59:07;;;;;;;17.95;11.25;;;;;;;19.44;100.00;101214.78;10426936;28;20037;-79
2023/05/21 19:04:08;;;;;;;18.00;13.57;;;;;;;19.07;100.00;101213.28;10435256;28;20183;-79
2023/05/21 19:09:08;;;;;;;21.27;11.93;;;;;;;18.76;100.00;101217.97;10421657;28;20384;-80
2023/05/21 19:14:09;;;;;;;16.83;12.27;;;;;;;18.51;100.00;101226.28;10441948;28;20051;-79
2023/05/21 19:19:09;;;;;;;18.92;13.20;;;;;;;18.25;100.00;101238.13;10426894;28;20043;-79
2023/05/21 19:24:10;;;;;;;39.97;16.15;;;;;;;17.97;100.00;101239.22;10431223;28;20044;-79
2023/05/21 19:29:11;;;;;;;19.77;13.05;;;;;;;17.72;100.00;101241.28;10442030;28;20120;-79
2023/05/21 19:34:11;;;;;;;16.77;13.98;;;;;;;17.50;100.00;101251.34;10443039;28;20564;-80
2023/05/21 19:39:12;;;;;;;18.30;13.98;;;;;;;17.28;100.00;101253.44;10468125;28;20046;-79
2023/05/21 19:44:12;;;;;;;17.95;14.07;;;;;;;17.11;100.00;101260.94;10478805;28;20123;-79
2023/05/21 19:49:14;;;;;;;17.45;13.32;;;;;;;16.94;100.00;101273.66;10453751;28;20072;-79
2023/05/21 19:54:15;;;;;;;23.98;17.05;;;;;;;16.76;100.00;101274.03;10451388;28;20036;-80
2023/05/21 19:59:16;;;;;;;18.05;14.13;;;;;;;16.65;100.00;101279.00;10481319;28;20489;-78
2023/05/21 20:04:16;;;;;;;17.90;14.73;;;;;;;16.55;100.00;101282.22;10481983;28;20036;-78
2023/05/21 20:09:17;;;;;;;22.23;14.05;;;;;;;16.32;100.00;101268.34;10489592;28;20068;-79
2023/05/21 20:14:17;;;;;;;18.98;14.43;;;;;;;16.10;100.00;101276.47;10490443;28;20490;-79
2023/05/21 20:19:19;;;;;;;19.95;14.18;;;;;;;15.93;100.00;101278.59;10490115;28;20119;-79
2023/05/21 20:24:19;;;;;;;20.33;14.73;;;;;;;15.79;100.00;101286.00;10489800;28;20120;-79
2023/05/21 20:29:20;;;;;;;20.88;14.43;;;;;;;15.72;100.00;101284.00;10489332;28;20094;-79
2023/05/21 20:34:20;;;;;;;19.65;14.90;;;;;;;15.65;100.00;101276.75;10488986;28;20086;-78
2023/05/21 20:39:21;;;;;;;21.73;16.38;;;;;;;15.52;100.00;101278.09;10489142;28;20049;-78
2023/05/21 20:44:22;;;;;;;24.67;18.77;;;;;;;15.41;100.00;101278.63;10489875;28;20128;-79
2023/05/21 20:49:23;;;;;;;25.92;18.67;;;;;;;15.29;100.00;101275.56;10490044;28;20456;-78
2023/05/21 20:54:25;;;;;;;25.77;20.40;;;;;;;15.24;100.00;101285.03;10484024;28;20049;-78
2023/05/21 20:59:26;;;;;;;;;;;;;;;15.16;100.00;101281.25;10477917;28;20041;-79
2023/05/21 21:04:26;;;;;;;28.63;18.02;;;;;;;15.09;100.00;101288.94;10490026;28;19916;-80
2023/05/21 21:09:27;;;;;;;30.52;19.13;;;;;;;15.04;100.00;101293.13;10526423;28;20111;-80
2023/05/21 21:14:27;;;;;;;26.25;18.92;;;;;;;14.97;100.00;101297.28;10514872;28;20465;-79
2023/05/21 21:19:28;;;;;;;18.45;15.45;;;;;;;14.90;100.00;101299.66;10488421;28;20044;-79
2023/05/21 21:24:28;;;;;;;24.45;17.75;;;;;;;14.79;100.00;101292.25;10507988;28;20557;-80
2023/05/21 21:29:29;;;;;;;20.95;15.60;;;;;;;14.66;100.00;101304.00;10494437;28;20123;-80
2023/05/21 21:34:29;;;;;;;23.10;17.52;;;;;;;14.59;100.00;101301.97;10487757;28;20044;-79
2023/05/21 21:39:30;;;;;;;24.45;19.38;;;;;;;14.59;100.00;101315.16;10487745;28;20040;-80
2023/05/21 21:44:30;;;;;;;26.20;19.95;;;;;;;14.57;100.00;101315.94;10469182;28;20132;-79
2023/05/21 21:49:31;;;;;;;36.75;22.90;;;;;;;14.58;100.00;101315.09;10487314;28;20535;-79
2023/05/21 21:54:32;;;;;;;31.15;21.70;;;;;;;14.57;100.00;101308.94;10487036;28;20120;-79
2023/05/21 21:59:33;;;;;;;28.95;20.45;;;;;;;14.61;100.00;101310.84;10487554;28;20036;-79
2023/05/21 22:04:33;;;;;;;31.63;21.73;;;;;;;14.61;100.00;101315.22;10487050;28;20048;-80
2023/05/21 22:09:34;;;;;;;30.95;21.48;;;;;;;14.59;100.00;101315.16;10486264;28;20556;-78
2023/05/21 22:14:34;;;;;;;31.40;21.25;;;;;;;14.68;100.00;101318.13;10498786;28;20075;-79
2023/05/21 22:19:35;;;;;;;33.58;19.88;;;;;;;14.66;100.00;101317.19;10490951;28;20127;-78
2023/05/21 22:24:35;;;;;;;30.73;23.23;;;;;;;14.52;100.00;101316.66;10485977;28;20029;-79
2023/05/21 22:29:36;;;;;;;40.50;22.75;;;;;;;14.47;100.00;101312.97;10482851;28;20463;-78
2023/05/21 22:34:36;;;;;;;37.72;25.13;;;;;;;14.45;100.00;101301.47;10514671;28;20056;-79